| time (UTC) | temp C | wind direction | speed KPH | gust KPH | rain 1hr cm | rain 24hr cm | rain mn cm | humidity % | barometer mb |
| 20260502195500 | 19 | 17.7 | 29.0 | 0.00 | 4.85 | 0.00 | 41 | 1007.5 | |
| 20260502195000 | 19 | 17.7 | 29.0 | 0.00 | 4.85 | 0.00 | 42 | 1007.5 | |
| 20260502194001 | 19 | 17.7 | 29.0 | 0.00 | 4.85 | 0.00 | 42 | 1011.2 | |
| 20260502193000 | 18 | 14.5 | 25.7 | 0.00 | 4.85 | 0.00 | 42 | 1011.5 | |
| 20260502192500 | 18 | 12.9 | 24.1 | 0.00 | 4.85 | 0.00 | 42 | 1011.5 | |
| 20260502192000 | 18 | 12.9 | 24.1 | 0.00 | 4.85 | 0.00 | 42 | 1011.5 | |
| 20260502191500 | 18 | 12.9 | 24.1 | 0.00 | 4.85 | 0.00 | 41 | 1007.5 | |
| 20260502191000 | 18 | 12.9 | 24.1 | 0.00 | 4.85 | 0.00 | 42 | 1007.5 | |
| 20260502190500 | 18 | 12.9 | 24.1 | 0.00 | 4.85 | 0.00 | 42 | 1011.8 | |
| 20260502190004 | 18 | 12.9 | 24.1 | 0.00 | 4.85 | 0.00 | 42 | 1011.8 | |
| 20260502185500 | 18 | 16.1 | 27.4 | 0.00 | 4.85 | 0.00 | 41 | 1012.2 | |
| 20260502185000 | 18 | 16.1 | 27.4 | 0.00 | 4.85 | 0.00 | 41 | 1012.2 | |
| 20260502184500 | 18 | 14.5 | 24.1 | 0.00 | 4.85 | 0.00 | 42 | 1012.2 | |
| 20260502184000 | 18 | 14.5 | 24.1 | 0.00 | 4.85 | 0.00 | 42 | 1012.2 | |
| 20260502183000 | 18 | 14.5 | 24.1 | 0.00 | 4.85 | 0.00 | 41 | 1012.2 | |
| 20260502182500 | 18 | 14.5 | 24.1 | 0.00 | 4.85 | 0.00 | 42 | 1012.5 | |
| 20260502182000 | 18 | 14.5 | 24.1 | 0.00 | 4.85 | 0.00 | 42 | 1012.5 | |
| 20260502181500 | 18 | 12.9 | 24.1 | 0.00 | 4.85 | 0.00 | 43 | 1012.5 | |
| 20260502180500 | 17 | 12.9 | 24.1 | 0.00 | 4.85 | 0.00 | 43 | 1013.2 | |
| 20260502170500 | 16 | 14.5 | 25.7 | 0.00 | 4.85 | 0.00 | 47 | 1013.5 | |
| 20260502164000 | 15 | 14.5 | 24.1 | 0.00 | 4.85 | 0.00 | 49 | 1013.5 | |
| 20260502162500 | 14 | 14.5 | 24.1 | 0.00 | 4.85 | 0.00 | 48 | 1013.9 | |
| 20260502161500 | 14 | 12.9 | 24.1 | 0.00 | 4.85 | 0.00 | 47 | 1013.9 | |
| 20260502161000 | 14 | 12.9 | 24.1 | 0.00 | 4.85 | 0.00 | 47 | 1013.9 | |
| 20260502160500 | 14 | 12.9 | 24.1 | 0.00 | 4.85 | 0.00 | 48 | 1014.2 | |
| 20260502152001 | 12 | 12.9 | 22.5 | 0.00 | 4.85 | 0.00 | 51 | 1014.6 | |
| 20260502151500 | 12 | 11.3 | 22.5 | 0.00 | 4.85 | 0.00 | 52 | 1014.6 | |
| 20260502151000 | 12 | 11.3 | 22.5 | 0.00 | 4.85 | 0.00 | 52 | 1014.6 | |
| 20260502150500 | 11 | 11.3 | 22.5 | 0.00 | 4.85 | 0.00 | 53 | 1014.9 | |
| 20260502130500 | 6 | 4.8 | 11.3 | 0.00 | 4.85 | 0.00 | 61 | 1012.5 | |
| 20260502123500 | 4 | 4.8 | 9.7 | 0.00 | 4.85 | 0.00 | 62 | 1016.6 | |
| 20260502123000 | 4 | 4.8 | 9.7 | 0.00 | 4.85 | 0.00 | 62 | 1016.6 | |
| 20260502122500 | 4 | 4.8 | 9.7 | 0.00 | 4.85 | 0.00 | 62 | 1016.6 | |
| 20260502122000 | 4 | 4.8 | 9.7 | 0.00 | 4.85 | 0.00 | 63 | 1016.6 | |
| 20260502121500 | 4 | 4.8 | 8.0 | 0.00 | 4.85 | 0.00 | 63 | 1016.6 | |
| 20260502121000 | 3 | 4.8 | 8.0 | 0.00 | 4.85 | 0.00 | 63 | 1016.6 | |
| 20260502120501 | 3 | 4.8 | 8.0 | 0.00 | 4.85 | 0.00 | 63 | 1016.6 | |
| 20260502115000 | 3 | 4.8 | 8.0 | 0.00 | 4.85 | 0.00 | 64 | 1016.6 | |
| 20260502114500 | 3 | 4.8 | 9.7 | 0.00 | 4.85 | 0.00 | 64 | 1016.9 | |
| 20260502114000 | 3 | 4.8 | 9.7 | 0.00 | 4.85 | 0.00 | 64 | 1016.9 | |
| 20260502113500 | 3 | 6.4 | 12.9 | 0.00 | 4.85 | 0.00 | 64 | 1017.3 | |
| 20260502112500 | 3 | 8.0 | 12.9 | 0.00 | 4.85 | 0.00 | 65 | 1017.3 | |
| 20260502112000 | 3 | 8.0 | 12.9 | 0.00 | 4.85 | 0.00 | 65 | 1017.3 | |
| 20260502111500 | 3 | 4.8 | 8.0 | 0.00 | 4.85 | 0.00 | 65 | 1017.3 | |
| 20260502110500 | 2 | 4.8 | 8.0 | 0.00 | 4.85 | 0.00 | 65 | 1014.9 | |
| 20260502110000 | 2 | 4.8 | 8.0 | 0.00 | 4.85 | 0.00 | 65 | 1014.9 | |
| 20260502105500 | 2 | 4.8 | 8.0 | 0.00 | 4.85 | 0.00 | 65 | 1017.3 | |
| 20260502104500 | 3 | 4.8 | 8.0 | 0.00 | 4.85 | 0.00 | 64 | 1017.3 | |
| 20260502104001 | 3 | 4.8 | 8.0 | 0.00 | 4.85 | 0.00 | 64 | 1017.3 | |
| 20260502103501 | 3 | 4.8 | 8.0 | 0.00 | 4.85 | 0.00 | 64 | 1017.6 | |
| 20260502102500 | 2 | 4.8 | 8.0 | 0.00 | 4.85 | 0.00 | 64 | 1017.6 | |
| 20260502102000 | 2 | 4.8 | 8.0 | 0.00 | 4.85 | 0.00 | 64 | 1017.6 | |
| 20260502101500 | 2 | 4.8 | 8.0 | 0.00 | 4.85 | 0.00 | 64 | 1015.9 | |
| 20260502101000 | 2 | 4.8 | 8.0 | 0.00 | 4.85 | 0.00 | 65 | 1015.9 | |
| 20260502100500 | 2 | 4.8 | 8.0 | 0.00 | 4.85 | 0.00 | 66 | 1017.6 | |
| 20260502091001 | 2 | 4.8 | 6.4 | 0.00 | 4.85 | 0.00 | 64 | 1017.6 | |
| 20260502090500 | 2 | 4.8 | 6.4 | 0.00 | 4.85 | 0.00 | 64 | 1017.6 | |
| 20260502070500 | 2 | 3.2 | 4.8 | 0.00 | 4.85 | 0.00 | 57 | 1018.3 | |
| 20260502065500 | 2 | 3.2 | 4.8 | 0.00 | 4.85 | 0.00 | 57 | 1018.3 | |
| 20260502065000 | 2 | 3.2 | 4.8 | 0.00 | 4.85 | 0.00 | 56 | 1018.3 | |
| 20260502064501 | 2 | 3.2 | 4.8 | 0.00 | 4.85 | 0.00 | 56 | 1018.3 | |
| 20260502063500 | 2 | 3.2 | 4.8 | 0.00 | 4.85 | 0.00 | 54 | 1018.3 | |
| 20260502063000 | 2 | 3.2 | 4.8 | 0.00 | 4.85 | 0.00 | 54 | 1018.3 | |
| 20260502062500 | 2 | 3.2 | 4.8 | 0.00 | 4.85 | 0.00 | 54 | 1018.3 | |
| 20260502062000 | 3 | 3.2 | 4.8 | 0.00 | 4.85 | 0.00 | 53 | 1018.3 | |
| 20260502061500 | 3 | 3.2 | 4.8 | 0.00 | 4.85 | 0.00 | 53 | 1018.3 | |
| 20260502061000 | 3 | 3.2 | 4.8 | 0.00 | 4.85 | 0.00 | 51 | 1018.3 | |
| 20260502060500 | 3 | 3.2 | 4.8 | 0.00 | 4.85 | 0.00 | 51 | 1018.3 | |
| 20260502060000 | 3 | 3.2 | 4.8 | 0.00 | 4.85 | 0.00 | 51 | 1018.3 | |
| 20260502054500 | 3 | 3.2 | 4.8 | 0.00 | 4.85 | 0.00 | 49 | 1018.3 | |
| 20260502053500 | 3 | 4.8 | 6.4 | 0.00 | 4.85 | 0.00 | 47 | 1018.3 | |
| 20260502052500 | 3 | 6.4 | 9.7 | 0.00 | 4.85 | 0.00 | 46 | 1018.3 | |
| 20260502052000 | 4 | 6.4 | 9.7 | 0.00 | 4.85 | 0.00 | 45 | 1018.3 | |
| 20260502051500 | 4 | 4.8 | 6.4 | 0.00 | 4.85 | 0.00 | 45 | 1018.3 | |
| 20260502051000 | 4 | 4.8 | 6.4 | 0.00 | 4.85 | 0.00 | 44 | 1018.3 | |
| 20260502050500 | 4 | 4.8 | 6.4 | 0.00 | 4.85 | 0.00 | 44 | 1018.6 | |
| 20260502050000 | 4 | 4.8 | 6.4 | 0.00 | 4.85 | 0.00 | 44 | 1018.6 | |
| 20260502045500 | 4 | 4.8 | 6.4 | 0.00 | 4.85 | 0.00 | 43 | 1018.6 | |
| 20260502045000 | 4 | 4.8 | 6.4 | 0.00 | 4.85 | 0.00 | 43 | 1018.6 | |
| 20260502044001 | 5 | 4.8 | 4.8 | 0.00 | 4.85 | 0.00 | 42 | 1018.6 | |
| 20260502043000 | 5 | 4.8 | 6.4 | 0.00 | 4.85 | 0.00 | 42 | 1018.6 | |
| 20260502041000 | 6 | 4.8 | 8.0 | 0.00 | 4.85 | 0.00 | 42 | 1018.6 | |
| 20260502040500 | 6 | 4.8 | 8.0 | 0.00 | 4.85 | 0.00 | 42 | 1018.6 | |
| 20260502035500 | 6 | 6.4 | 8.0 | 0.00 | 4.85 | 0.00 | 42 | 1018.6 | |
| 20260502035000 | 6 | 6.4 | 8.0 | 0.00 | 4.85 | 0.00 | 42 | 1018.6 | |
| 20260502034500 | 6 | 8.0 | 9.7 | 0.00 | 4.85 | 0.00 | 42 | 1018.6 | |
| 20260502034000 | 6 | 8.0 | 9.7 | 0.00 | 4.85 | 0.00 | 42 | 1018.6 | |
| 20260502033000 | 6 | 8.0 | 9.7 | 0.00 | 4.85 | 0.00 | 42 | 1018.6 | |
| 20260502032500 | 7 | 8.0 | 11.3 | 0.00 | 4.85 | 0.00 | 42 | 1018.6 | |
| 20260502031500 | 7 | 8.0 | 11.3 | 0.00 | 4.85 | 0.00 | 42 | 1019.3 | |
| 20260502030500 | 7 | 8.0 | 11.3 | 0.00 | 4.85 | 0.00 | 42 | 1019.3 | |
| 20260502025500 | 8 | 8.0 | 12.9 | 0.00 | 4.85 | 0.00 | 41 | 1018.3 | |
| 20260502023500 | 8 | 8.0 | 12.9 | 0.00 | 4.85 | 0.00 | 41 | 1018.3 | |
| 20260502023000 | 8 | 8.0 | 12.9 | 0.00 | 4.85 | 0.00 | 41 | 1018.3 | |
| 20260502022500 | 8 | 8.0 | 12.9 | 0.00 | 4.85 | 0.00 | 40 | 1018.3 | |
| 20260502022000 | 8 | 8.0 | 12.9 | 0.00 | 4.85 | 0.00 | 40 | 1019.6 | |
| 20260502021500 | 8 | 8.0 | 12.9 | 0.00 | 4.85 | 0.00 | 40 | 1019.6 | |
| 20260502020001 | 9 | 8.0 | 12.9 | 0.00 | 4.85 | 0.00 | 40 | 1018.3 | |
| 20260502015500 | 9 | 9.7 | 14.5 | 0.00 | 4.85 | 0.00 | 39 | 1018.3 | |
| 20260502015001 | 10 | 9.7 | 14.5 | 0.00 | 4.85 | 0.00 | 39 | 1018.3 | |
| 20260502014500 | 10 | 9.7 | 14.5 | 0.00 | 4.85 | 0.00 | 38 | 1018.3 | |
| 20260502014000 | 10 | 9.7 | 14.5 | 0.00 | 4.85 | 0.00 | 38 | 1018.3 | |
| 20260502013500 | 10 | 9.7 | 16.1 | 0.00 | 4.85 | 0.00 | 37 | 1018.0 | |
| 20260502013000 | 10 | 9.7 | 16.1 | 0.00 | 4.85 | 0.00 | 37 | 1018.0 | |
| 20260502012500 | 10 | 9.7 | 16.1 | 0.00 | 4.85 | 0.00 | 37 | 1018.0 | |
| 20260502011500 | 11 | 9.7 | 16.1 | 0.00 | 4.85 | 0.00 | 35 | 1018.0 | |
| 20260502011000 | 11 | 9.7 | 16.1 | 0.00 | 4.85 | 0.00 | 34 | 1018.0 | |
| 20260502010500 | 11 | 9.7 | 16.1 | 0.00 | 4.85 | 0.00 | 34 | 1020.0 | |
| 20260502010000 | 11 | 9.7 | 16.1 | 0.00 | 4.85 | 0.00 | 34 | 1020.0 | |
| 20260502005500 | 11 | 9.7 | 16.1 | 0.00 | 4.85 | 0.00 | 34 | 1018.0 | |
| 20260502004500 | 12 | 9.7 | 14.5 | 0.00 | 4.85 | 0.00 | 34 | 1018.0 | |
| 20260502004000 | 12 | 9.7 | 14.5 | 0.00 | 4.85 | 0.00 | 33 | 1018.0 | |
| 20260502003000 | 12 | 9.7 | 16.1 | 0.00 | 4.85 | 0.00 | 33 | 1018.0 | |
| 20260502002000 | 12 | 9.7 | 14.5 | 0.00 | 4.85 | 0.00 | 33 | 1017.6 | |
| 20260502001501 | 12 | 9.7 | 16.1 | 0.00 | 4.85 | 0.00 | 33 | 1020.3 | |
| 20260502001000 | 12 | 9.7 | 16.1 | 0.00 | 4.85 | 0.00 | 33 | 1020.3 | |
| 20260502000500 | 12 | 9.7 | 16.1 | 0.00 | 4.85 | 0.00 | 33 | 1017.6 | |
| 20260502000000 | 12 | 9.7 | 16.1 | 0.00 | 4.85 | 0.00 | 33 | 1017.6 | |
| 20260501235500 | 13 | 9.7 | 16.1 | 0.00 | 4.85 | 0.00 | 33 | 1017.6 | |
| 20260501234501 | 13 | 9.7 | 16.1 | 0.00 | 4.85 | 0.00 | 33 | 1018.0 | |
| 20260501234001 | 13 | 9.7 | 16.1 | 0.00 | 4.85 | 0.00 | 32 | 1018.0 | |
| 20260501233500 | 13 | 9.7 | 14.5 | 0.00 | 4.85 | 0.00 | 32 | 1018.0 | |
| 20260501233000 | 13 | 9.7 | 14.5 | 0.00 | 4.85 | 0.00 | 32 | 1018.0 | |
| 20260501232500 | 13 | 9.7 | 17.7 | 0.00 | 4.85 | 0.00 | 31 | 1020.7 | |
| 20260501232000 | 13 | 9.7 | 17.7 | 0.00 | 4.85 | 0.00 | 31 | 1020.7 | |
| 20260501231000 | 12 | 9.7 | 17.7 | 0.00 | 4.85 | 0.00 | 32 | 1020.7 | |
| 20260501230000 | 13 | 9.7 | 17.7 | 0.00 | 4.85 | 0.00 | 31 | 1018.0 | |
| 20260501225500 | 13 | 11.3 | 17.7 | 0.00 | 4.85 | 0.00 | 31 | 1018.0 | |
| 20260501225000 | 13 | 11.3 | 17.7 | 0.00 | 4.85 | 0.00 | 31 | 1018.0 | |
| 20260501224000 | 13 | 11.3 | 17.7 | 0.00 | 4.85 | 0.00 | 32 | 1018.0 | |
| 20260501223500 | 13 | 9.7 | 17.7 | 0.00 | 4.85 | 0.00 | 32 | 1018.3 | |
| 20260501223000 | 13 | 9.7 | 17.7 | 0.00 | 4.85 | 0.00 | 32 | 1018.3 | |
| 20260501222500 | 13 | 9.7 | 16.1 | 0.00 | 4.85 | 0.00 | 32 | 1018.3 | |
| 20260501222000 | 13 | 9.7 | 16.1 | 0.00 | 4.85 | 0.00 | 31 | 1018.3 | |
| 20260501221500 | 13 | 9.7 | 16.1 | 0.00 | 4.85 | 0.00 | 31 | 1018.3 | |
| 20260501221001 | 13 | 9.7 | 16.1 | 0.00 | 4.85 | 0.00 | 31 | 1018.3 | |
| 20260501220000 | 13 | 9.7 | 16.1 | 0.00 | 4.85 | 0.00 | 31 | 1018.0 | |
| 20260501215500 | 14 | 9.7 | 16.1 | 0.00 | 4.85 | 0.00 | 31 | 1018.0 | |
| 20260501215000 | 14 | 9.7 | 16.1 | 0.00 | 4.85 | 0.00 | 31 | 1018.0 | |
| 20260501214500 | 15 | 9.7 | 16.1 | 0.00 | 4.85 | 0.00 | 31 | 1018.0 | |
| 20260501213500 | 15 | 9.7 | 16.1 | 0.00 | 4.85 | 0.00 | 31 | 1018.0 | |
| 20260501213000 | 15 | 9.7 | 16.1 | 0.00 | 4.85 | 0.00 | 30 | 1018.0 | |
| 20260501212501 | 15 | 9.7 | 16.1 | 0.00 | 4.85 | 0.00 | 31 | 1018.3 | |
| 20260501212000 | 15 | 9.7 | 16.1 | 0.00 | 4.85 | 0.00 | 31 | 1018.3 | |
| 20260501211500 | 15 | 9.7 | 16.1 | 0.00 | 4.85 | 0.00 | 31 | 1020.0 | |
| 20260501211000 | 15 | 9.7 | 16.1 | 0.00 | 4.85 | 0.00 | 32 | 1020.0 | |
| 20260501210500 | 15 | 9.7 | 16.1 | 0.00 | 4.85 | 0.00 | 31 | 1018.3 | |
| 20260501205000 | 13 | 9.7 | 16.1 | 0.00 | 4.85 | 0.00 | 32 | 1018.3 | |
| 20260501204500 | 13 | 9.7 | 16.1 | 0.00 | 4.85 | 0.00 | 32 | 1018.6 | |
| 20260501204000 | 14 | 9.7 | 16.1 | 0.00 | 4.85 | 0.00 | 32 | 1018.6 | |
| 20260501203500 | 15 | 8.0 | 16.1 | 0.00 | 4.85 | 0.00 | 33 | 1019.6 | |
| 20260501203000 | 15 | 8.0 | 16.1 | 0.00 | 4.85 | 0.00 | 32 | 1019.6 | |
| 20260501202501 | 14 | 8.0 | 14.5 | 0.00 | 4.85 | 0.00 | 32 | 1018.6 | |
| 20260501202000 | 14 | 8.0 | 14.5 | 0.00 | 4.85 | 0.00 | 31 | 1018.6 | |
| 20260501201000 | 14 | 8.0 | 14.5 | 0.00 | 4.85 | 0.00 | 32 | 1019.6 | |
| 20260501200501 | 14 | 8.0 | 14.5 | 0.00 | 4.85 | 0.00 | 33 | 1019.6 | |
| 20260501200000 | 14 | 8.0 | 14.5 | 0.00 | 4.85 | 0.00 | 33 | 1019.6 |